createdAt,value
2018-12-14T00:02:59.277Z,12.93
2018-12-14T00:07:06.114Z,12.00
2018-12-14T00:11:11.017Z,11.03
2018-12-14T00:15:15.897Z,13.13
2018-12-14T00:19:21.399Z,12.73
2018-12-14T00:23:26.280Z,13.00
2018-12-14T00:27:31.199Z,13.53
2018-12-14T00:31:36.166Z,15.33
2018-12-14T00:35:42.151Z,17.27
2018-12-14T00:39:47.027Z,14.93
2018-12-14T00:43:52.041Z,16.13
2018-12-14T00:47:57.112Z,17.00
2018-12-14T00:52:02.980Z,14.80
2018-12-14T00:56:08.038Z,17.27
2018-12-14T01:00:13.047Z,15.03
2018-12-14T01:04:18.865Z,15.77
2018-12-14T01:08:24.846Z,18.07
2018-12-14T01:12:29.766Z,15.73
2018-12-14T01:16:35.347Z,16.37
2018-12-14T01:20:40.295Z,16.20
2018-12-14T01:24:45.400Z,16.93
2018-12-14T01:28:50.328Z,18.60
2018-12-14T01:32:55.250Z,14.83
2018-12-14T01:37:00.229Z,19.87
2018-12-14T01:41:05.851Z,16.87
2018-12-14T01:45:10.685Z,15.83
2018-12-14T01:49:15.938Z,15.23
2018-12-14T01:53:20.836Z,15.60
2018-12-14T01:57:26.477Z,17.20
2018-12-14T02:01:31.380Z,17.00
2018-12-14T02:05:37.750Z,13.83
2018-12-14T02:09:42.726Z,15.40
2018-12-14T02:13:47.864Z,15.17
2018-12-14T02:17:52.769Z,16.23
2018-12-14T02:21:57.775Z,13.50
2018-12-14T02:26:02.700Z,15.40
2018-12-14T02:30:19.983Z,16.17
2018-12-14T02:34:24.894Z,15.73
2018-12-14T02:38:29.889Z,16.00
2018-12-14T02:42:35.193Z,17.00
2018-12-14T02:46:41.555Z,16.53
2018-12-14T02:50:46.754Z,15.67
2018-12-14T02:54:51.721Z,15.83
2018-12-14T02:58:56.590Z,13.33
2018-12-14T03:03:02.129Z,16.90
2018-12-14T03:07:07.506Z,16.83
2018-12-14T03:11:12.446Z,16.63
2018-12-14T03:15:17.700Z,14.97
2018-12-14T03:19:23.870Z,16.20
2018-12-14T03:23:30.803Z,16.63
2018-12-14T03:27:35.755Z,14.13
2018-12-14T03:31:40.616Z,14.67
2018-12-14T03:35:46.236Z,13.30
2018-12-14T03:39:51.094Z,16.03
2018-12-14T03:43:56.065Z,14.20
2018-12-14T03:48:02.874Z,14.00
2018-12-14T03:52:08.812Z,15.53
2018-12-14T03:56:13.790Z,14.63
2018-12-14T04:00:19.038Z,15.60
2018-12-14T04:04:23.933Z,14.33
2018-12-14T04:08:29.584Z,14.90
2018-12-14T04:12:41.242Z,14.03
2018-12-14T04:16:41.519Z,13.90
2018-12-14T04:20:46.530Z,12.20
2018-12-14T04:24:52.480Z,11.27
2018-12-14T04:28:57.542Z,12.33
2018-12-14T04:33:02.443Z,12.50
2018-12-14T04:37:07.344Z,12.33
2018-12-14T04:41:13.414Z,11.57
2018-12-14T04:45:18.958Z,12.97
2018-12-14T04:49:24.208Z,12.90
2018-12-14T04:53:29.382Z,14.73
2018-12-14T04:57:34.560Z,13.67
2018-12-14T05:01:39.504Z,14.10
2018-12-14T05:05:44.535Z,14.17
2018-12-14T05:09:50.073Z,14.77
2018-12-14T05:13:56.265Z,20.10
2018-12-14T05:18:02.424Z,22.37
2018-12-14T05:22:07.774Z,17.13
2018-12-14T05:26:12.717Z,14.50
2018-12-14T05:30:18.041Z,12.20
2018-12-14T05:34:22.917Z,10.83
2018-12-14T05:38:28.126Z,11.30
2018-12-14T05:42:33.032Z,10.40
2018-12-14T05:46:39.121Z,11.10
2018-12-14T05:50:44.067Z,10.00
2018-12-14T05:54:49.171Z,10.80
2018-12-14T05:58:54.006Z,8.57
2018-12-14T06:02:59.397Z,10.67
2018-12-14T06:07:04.529Z,12.13
2018-12-14T06:11:10.697Z,10.40
2018-12-14T06:15:16.570Z,11.53
2018-12-14T06:19:22.972Z,10.80
2018-12-14T06:23:27.893Z,9.00
2018-12-14T06:27:33.145Z,9.07
2018-12-14T06:31:38.119Z,10.03
2018-12-14T06:35:44.419Z,11.80
2018-12-14T06:39:49.359Z,11.07
2018-12-14T06:43:54.380Z,10.13
2018-12-14T06:47:59.325Z,10.30
2018-12-14T06:52:06.041Z,11.90
2018-12-14T06:56:11.180Z,12.50
2018-12-14T07:00:16.212Z,14.53
2018-12-14T07:04:21.556Z,11.67
2018-12-14T07:08:27.340Z,8.67
2018-12-14T07:12:32.687Z,14.77
2018-12-14T07:16:37.826Z,13.50
2018-12-14T07:20:42.940Z,17.27
2018-12-14T07:24:48.429Z,16.47
2018-12-14T07:28:53.448Z,17.23
2018-12-14T07:32:58.382Z,20.23
2018-12-14T07:37:03.258Z,12.07
2018-12-14T07:41:08.670Z,13.40
2018-12-14T07:45:13.774Z,18.53
2018-12-14T07:49:18.840Z,13.13
2018-12-14T07:53:23.762Z,15.40
2018-12-14T07:57:29.865Z,9.47
2018-12-14T08:01:34.783Z,15.40
2018-12-14T08:05:40.316Z,14.97
2018-12-14T08:09:45.253Z,17.50
2018-12-14T08:13:52.157Z,16.43
2018-12-14T08:17:57.067Z,17.93
2018-12-14T08:22:02.021Z,19.07
2018-12-14T08:26:06.968Z,17.83
2018-12-14T08:30:13.022Z,18.30
2018-12-14T08:34:17.905Z,15.23
2018-12-14T08:38:22.818Z,16.57
2018-12-14T08:42:27.797Z,18.73
2018-12-14T08:46:33.158Z,14.53
2018-12-14T08:50:38.276Z,18.63
2018-12-14T08:54:43.270Z,15.23
2018-12-14T08:58:48.307Z,13.37
2018-12-14T09:02:53.952Z,14.93
2018-12-14T09:06:58.821Z,14.70
2018-12-14T09:11:03.813Z,16.23
2018-12-14T09:15:09.819Z,16.33
2018-12-14T09:19:15.794Z,12.50
2018-12-14T09:23:20.798Z,12.07
2018-12-14T09:27:26.241Z,11.97
2018-12-14T09:31:31.569Z,11.23
2018-12-14T09:35:37.313Z,25.80
2018-12-14T09:39:43.218Z,30.87
2018-12-14T09:43:54.185Z,17.67
2018-12-14T09:47:55.162Z,17.90
2018-12-14T09:52:01.988Z,15.50
2018-12-14T09:56:06.907Z,16.93
2018-12-14T10:00:12.094Z,11.37
2018-12-14T10:04:17.211Z,17.27
2018-12-14T10:08:23.113Z,18.13
2018-12-14T10:12:28.050Z,16.17
2018-12-14T10:16:33.113Z,13.77
2018-12-14T10:20:38.114Z,8.70
2018-12-14T10:24:47.453Z,14.70
2018-12-14T10:28:52.395Z,6.97
2018-12-14T10:32:57.314Z,15.83
2018-12-14T10:37:02.291Z,16.83
2018-12-14T10:41:08.940Z,17.67
2018-12-14T10:45:13.944Z,15.57
2018-12-14T10:49:18.872Z,14.37
2018-12-14T10:53:23.907Z,14.00
2018-12-14T10:57:29.600Z,16.33
2018-12-14T11:01:40.149Z,17.20
2018-12-14T11:05:45.238Z,18.10
2018-12-14T11:09:50.129Z,17.53
2018-12-14T11:13:55.971Z,28.67
2018-12-14T11:18:02.442Z,18.83
2018-12-14T11:22:07.400Z,19.90
2018-12-14T11:26:12.391Z,22.97
2018-12-14T11:30:18.787Z,16.97
2018-12-14T11:34:29.560Z,16.70
2018-12-14T11:38:31.758Z,16.50
2018-12-14T11:42:37.265Z,13.07
2018-12-14T11:46:42.857Z,13.77
2018-12-14T11:50:47.741Z,11.83
2018-12-14T11:54:52.762Z,15.93
2018-12-14T11:58:57.704Z,15.27
2018-12-14T12:03:03.515Z,17.47
2018-12-14T12:07:08.400Z,13.57
2018-12-14T12:11:13.391Z,11.67
2018-12-14T12:15:18.295Z,14.90
2018-12-14T12:19:24.731Z,15.60
2018-12-14T12:23:29.815Z,15.00
2018-12-14T12:27:34.786Z,14.47
2018-12-14T12:31:39.666Z,13.20
2018-12-14T12:35:44.709Z,14.03
2018-12-14T12:39:49.582Z,13.63
2018-12-14T12:43:54.678Z,12.50
2018-12-14T12:47:59.601Z,13.87
2018-12-14T12:52:05.495Z,13.70
2018-12-14T12:56:10.694Z,14.50
2018-12-14T13:00:15.768Z,14.00
2018-12-14T13:04:21.030Z,13.80
2018-12-14T13:08:27.397Z,9.53
2018-12-14T13:12:32.261Z,8.37
2018-12-14T13:16:37.227Z,10.67
2018-12-14T13:20:43.414Z,8.90
2018-12-14T13:24:49.058Z,14.23
2018-12-14T13:28:53.968Z,13.07
2018-12-14T13:32:59.323Z,13.97
2018-12-14T13:37:04.316Z,15.63
2018-12-14T13:41:10.624Z,14.23
2018-12-14T13:45:15.657Z,14.80
2018-12-14T13:49:20.689Z,16.83
2018-12-14T13:53:25.649Z,16.33
2018-12-14T13:57:31.417Z,15.67
2018-12-14T14:01:36.292Z,16.43
2018-12-14T14:05:41.609Z,15.93
2018-12-14T14:09:46.805Z,17.30
2018-12-14T14:13:52.745Z,15.30
2018-12-14T14:17:57.688Z,15.93
2018-12-14T14:22:03.405Z,17.10
2018-12-14T14:26:08.273Z,16.73
2018-12-14T14:30:14.075Z,16.57
2018-12-14T14:34:18.949Z,16.00
2018-12-14T14:38:23.958Z,14.27
2018-12-14T14:42:28.848Z,17.57
2018-12-14T14:46:39.543Z,17.97
2018-12-14T14:50:47.390Z,15.80
2018-12-14T14:54:52.976Z,15.97
2018-12-14T14:58:57.831Z,13.60
2018-12-14T15:03:03.027Z,17.43
2018-12-14T15:07:08.216Z,18.70
2018-12-14T15:11:13.236Z,18.13
2018-12-14T15:15:20.181Z,17.23
2018-12-14T15:19:26.515Z,18.80
2018-12-14T15:23:32.337Z,19.83
2018-12-14T15:27:37.362Z,19.53
2018-12-14T15:31:43.504Z,21.03
2018-12-14T15:35:48.568Z,18.40
2018-12-14T15:39:53.487Z,20.20
2018-12-14T15:43:58.532Z,19.37
2018-12-14T15:48:03.872Z,19.20
2018-12-14T15:52:09.926Z,20.87
2018-12-14T15:56:14.949Z,43.23
2018-12-14T16:00:20.002Z,27.70
2018-12-14T16:04:24.944Z,19.60
2018-12-14T16:08:30.494Z,18.47
2018-12-14T16:12:35.542Z,45.53
2018-12-14T16:16:40.546Z,27.37
2018-12-14T16:20:46.091Z,18.97
2018-12-14T16:24:52.317Z,21.90
2018-12-14T16:28:58.289Z,22.60
2018-12-14T16:33:04.274Z,35.47
2018-12-14T16:37:09.215Z,19.53
2018-12-14T16:41:14.364Z,22.97
2018-12-14T16:45:19.380Z,23.47
2018-12-14T16:49:24.522Z,22.63
2018-12-14T16:53:31.507Z,20.90
2018-12-14T16:57:38.019Z,21.33
2018-12-14T17:01:42.938Z,13.30
2018-12-14T17:05:48.173Z,21.77
2018-12-14T17:09:53.269Z,16.60
2018-12-14T17:13:58.615Z,18.63
2018-12-14T17:18:04.726Z,13.00
2018-12-14T17:22:09.835Z,18.60
2018-12-14T17:26:15.044Z,24.37
2018-12-14T17:30:20.671Z,22.97
2018-12-14T17:34:25.810Z,22.40
2018-12-14T17:38:30.775Z,24.73
2018-12-14T17:42:36.769Z,15.93
2018-12-14T17:46:42.695Z,21.13
2018-12-14T17:50:47.682Z,21.67
2018-12-14T17:54:53.637Z,22.53
2018-12-14T17:58:58.642Z,25.20
2018-12-14T18:03:03.911Z,16.87
2018-12-14T18:07:10.933Z,23.93
2018-12-14T18:11:16.023Z,25.97
2018-12-14T18:15:22.038Z,23.30
2018-12-14T18:19:28.694Z,28.53
2018-12-14T18:23:33.658Z,23.07
2018-12-14T18:27:40.089Z,27.70
2018-12-14T18:31:45.320Z,23.33
2018-12-14T18:35:54.642Z,29.10
2018-12-14T18:40:00.200Z,25.97
2018-12-14T18:44:06.388Z,27.60
2018-12-14T18:48:11.583Z,28.03
2018-12-14T18:52:17.545Z,27.83
2018-12-14T18:56:22.435Z,24.30
2018-12-14T19:00:28.112Z,25.20
2018-12-14T19:04:33.342Z,27.77
2018-12-14T19:08:39.302Z,25.90
2018-12-14T19:12:44.389Z,26.80
2018-12-14T19:16:49.363Z,24.57
2018-12-14T19:20:54.321Z,23.83
2018-12-14T19:25:07.919Z,25.17
2018-12-14T19:29:14.672Z,22.63
2018-12-14T19:33:19.859Z,24.00
2018-12-14T19:37:24.919Z,22.83
2018-12-14T19:41:31.546Z,21.37
2018-12-14T19:45:36.414Z,21.40
2018-12-14T19:49:41.623Z,21.80
2018-12-14T19:53:46.615Z,20.53
2018-12-14T19:57:52.263Z,21.33
2018-12-14T20:01:57.197Z,20.63
2018-12-14T20:06:02.166Z,22.57
2018-12-14T20:10:08.405Z,20.83
2018-12-14T20:14:14.443Z,22.10
2018-12-14T20:18:19.384Z,16.57
2018-12-14T20:22:24.419Z,20.67
2018-12-14T20:26:29.524Z,21.47
2018-12-14T20:30:36.030Z,22.30
2018-12-14T20:34:41.077Z,19.23
2018-12-14T20:38:46.661Z,20.17
2018-12-14T20:42:51.602Z,20.17
2018-12-14T20:46:58.614Z,19.13
2018-12-14T20:51:03.285Z,18.50
2018-12-14T20:55:10.039Z,19.43
2018-12-14T20:59:15.921Z,19.10
2018-12-14T21:03:22.424Z,17.13
2018-12-14T21:07:27.346Z,18.03
2018-12-14T21:11:32.316Z,20.17
2018-12-14T21:15:37.400Z,19.23
2018-12-14T21:19:42.980Z,20.27
2018-12-14T21:23:51.641Z,16.50
2018-12-14T21:27:56.680Z,19.53
2018-12-14T21:32:02.579Z,20.10
2018-12-14T21:36:08.112Z,19.67
2018-12-14T21:40:13.369Z,20.50
2018-12-14T21:44:18.603Z,19.83
2018-12-14T21:48:23.658Z,18.87
2018-12-14T21:52:30.093Z,20.00
2018-12-14T21:56:38.438Z,16.60
2018-12-14T22:00:43.383Z,20.93
2018-12-14T22:04:48.362Z,20.30
2018-12-14T22:08:54.050Z,21.17
2018-12-14T22:12:59.027Z,19.93
2018-12-14T22:17:04.076Z,18.80
2018-12-14T22:21:09.021Z,19.73
2018-12-14T22:25:15.124Z,19.97
2018-12-14T22:29:20.134Z,19.47
2018-12-14T22:33:27.013Z,18.37
2018-12-14T22:37:32.732Z,18.47
2018-12-14T22:41:37.978Z,15.73
2018-12-14T22:45:42.887Z,18.83
2018-12-14T22:49:47.932Z,18.60
2018-12-14T22:53:52.878Z,17.80
2018-12-14T22:57:59.125Z,17.70
2018-12-14T23:02:04.175Z,15.07
2018-12-14T23:06:09.295Z,19.33
2018-12-14T23:10:14.254Z,19.30
2018-12-14T23:14:20.224Z,17.67
2018-12-14T23:18:25.134Z,18.40
2018-12-14T23:22:30.325Z,17.73
2018-12-14T23:26:35.290Z,16.00
2018-12-14T23:30:40.302Z,18.30
2018-12-14T23:34:46.291Z,18.30
2018-12-14T23:38:51.953Z,17.90
2018-12-14T23:42:57.094Z,17.27
2018-12-14T23:47:02.326Z,17.73
2018-12-14T23:51:08.280Z,16.20
2018-12-14T23:55:13.033Z,19.17
2018-12-14T23:59:17.961Z,11.23
